Time;durP1;ratioP1;P1;durP2;ratioP2;P2;SDS_P1;SDS_P2;PMS_P1;PMS_P2;Temp;Humidity;BMP_temperature;BMP_pressure;BME280_temperature;BME280_humidity;BME280_pressure;Samples;Min_cycle;Max_cycle;Signal;HPM_P1;HPM_P2
2021/05/18 00:00:26;;;;;;;0.67;0.67;;;11.00;99.90;;;;;;4994396;28;20446;-66
2021/05/18 00:02:54;;;;;;;0.97;0.60;;;11.00;99.90;;;;;;4994511;28;20875;-65
2021/05/18 00:05:22;;;;;;;0.70;0.70;;;11.00;99.90;;;;;;4994328;28;20449;-66
2021/05/18 00:07:54;;;;;;;0.50;0.50;;;11.10;99.90;;;;;;4993964;28;20978;-65
2021/05/18 00:13:06;;;;;;;0.43;0.43;;;11.20;99.90;;;;;;4994274;28;20468;-65
2021/05/18 00:15:33;;;;;;;1.13;0.60;;;11.20;99.90;;;;;;4993536;28;20482;-66
2021/05/18 00:18:00;;;;;;;0.40;0.40;;;11.20;99.90;;;;;;4993699;28;20460;-66
2021/05/18 00:20:27;;;;;;;3.33;1.33;;;11.30;99.90;;;;;;4994063;28;20465;-66
2021/05/18 00:22:53;;;;;;;0.60;0.60;;;11.30;99.90;;;;;;4994094;28;20481;-66
2021/05/18 00:25:19;;;;;;;0.87;0.67;;;11.20;99.90;;;;;;4994096;28;20791;-66
2021/05/18 00:27:46;;;;;;;0.50;0.50;;;11.20;99.90;;;;;;4994052;28;20449;-67
2021/05/18 00:30:14;;;;;;;0.60;0.60;;;11.10;99.90;;;;;;4994051;28;20457;-67
2021/05/18 00:32:40;;;;;;;0.77;0.77;;;11.10;99.90;;;;;;4992803;28;20469;-66
2021/05/18 00:35:11;;;;;;;0.43;0.43;;;11.00;99.90;;;;;;4993999;28;20461;-66
2021/05/18 00:37:38;;;;;;;0.87;0.60;;;10.90;99.90;;;;;;4993731;28;20905;-66
2021/05/18 00:40:07;;;;;;;0.60;0.60;;;10.90;99.90;;;;;;4993959;28;20454;-67
2021/05/18 00:42:45;;;;;;;0.97;0.60;;;10.90;99.90;;;;;;4993839;28;20987;-66
2021/05/18 00:45:13;;;;;;;0.60;0.60;;;10.90;99.90;;;;;;4993761;28;20469;-65
2021/05/18 00:47:39;;;;;;;0.37;0.37;;;10.90;99.90;;;;;;4993555;28;20989;-66
2021/05/18 00:50:06;;;;;;;0.70;0.53;;;11.00;99.90;;;;;;4993885;28;20454;-67
2021/05/18 00:52:33;;;;;;;0.60;0.60;;;11.00;99.90;;;;;;4993763;28;20481;-66
2021/05/18 00:55:04;;;;;;;1.80;0.83;;;11.00;99.90;;;;;;4993761;28;20461;-67
2021/05/18 01:00:16;;;;;;;1.03;0.60;;;11.00;99.90;;;;;;4993685;28;20898;-66
2021/05/18 01:02:46;;;;;;;2.90;0.83;;;10.90;99.90;;;;;;4993267;28;20477;-66
2021/05/18 01:05:18;;;;;;;2.30;0.37;;;10.90;99.90;;;;;;4993620;28;20510;-67
2021/05/18 01:07:45;;;;;;;0.50;0.50;;;10.80;99.90;;;;;;4993790;28;20777;-67
2021/05/18 01:10:13;;;;;;;0.33;0.33;;;10.70;99.90;;;;;;4993692;28;20544;-67
2021/05/18 01:12:39;;;;;;;0.60;0.60;;;10.70;99.90;;;;;;4993627;28;20466;-67
2021/05/18 01:15:07;;;;;;;0.57;0.57;;;10.60;99.90;;;;;;4993684;28;20458;-65
2021/05/18 01:17:33;;;;;;;1.37;0.63;;;10.60;99.90;;;;;;4993746;28;20438;-67
2021/05/18 01:20:08;;;;;;;0.53;0.53;;;10.50;99.90;;;;;;4993638;28;20453;-67
2021/05/18 01:22:35;;;;;;;0.50;0.50;;;10.40;99.90;;;;;;4993428;28;20488;-67
2021/05/18 01:25:02;;;;;;;0.57;0.40;;;10.40;99.90;;;;;;4993598;28;20463;-67
2021/05/18 01:27:28;;;;;;;0.47;0.47;;;10.40;99.90;;;;;;4994719;28;20454;-67
2021/05/18 01:29:54;;;;;;;0.40;0.40;;;10.40;99.90;;;;;;4997205;28;20453;-67
2021/05/18 01:32:23;;;;;;;0.87;0.60;;;10.40;99.90;;;;;;4997003;28;20453;-66
2021/05/18 01:34:50;;;;;;;1.90;0.70;;;10.40;99.90;;;;;;4996728;28;20932;-67
2021/05/18 01:37:16;;;;;;;0.77;0.50;;;10.40;99.90;;;;;;4996939;28;20455;-67
2021/05/18 01:39:59;;;;;;;0.40;0.40;;;10.30;99.90;;;;;;4997027;28;20801;-67
2021/05/18 01:45:12;;;;;;;0.50;0.50;;;10.40;99.90;;;;;;4997037;28;20513;-67
2021/05/18 01:47:40;;;;;;;0.60;0.60;;;10.40;99.90;;;;;;4996989;28;20453;-67
2021/05/18 01:50:08;;;;;;;0.80;0.77;;;10.40;99.90;;;;;;4996870;28;20581;-67
2021/05/18 01:52:34;;;;;;;0.70;0.70;;;10.30;99.90;;;;;;4996792;28;20474;-66
2021/05/18 01:55:01;;;;;;;0.57;0.57;;;10.30;99.90;;;;;;4996540;28;20969;-66
2021/05/18 01:57:27;;;;;;;0.50;0.50;;;10.30;99.90;;;;;;4996922;28;20524;-66
2021/05/18 01:59:55;;;;;;;1.67;1.03;;;10.40;99.90;;;;;;4996675;28;20485;-67
2021/05/18 02:02:22;;;;;;;0.80;0.80;;;10.40;99.90;;;;;;4996222;28;20529;-67
2021/05/18 02:04:51;;;;;;;0.80;0.80;;;10.40;99.90;;;;;;4996816;28;20445;-67
2021/05/18 02:07:20;;;;;;;0.60;0.60;;;10.40;99.90;;;;;;4996257;28;20464;-67
2021/05/18 02:09:46;;;;;;;0.80;0.80;;;10.40;99.90;;;;;;4996343;28;20458;-67
2021/05/18 02:12:14;;;;;;;0.70;0.70;;;10.50;99.90;;;;;;4996460;28;20450;-66
2021/05/18 02:14:42;;;;;;;0.80;0.80;;;10.50;99.90;;;;;;4996209;28;20967;-67
2021/05/18 02:17:16;;;;;;;0.40;0.40;;;10.50;99.90;;;;;;4996562;28;20466;-67
2021/05/18 02:19:57;;;;;;;0.70;0.70;;;10.50;99.90;;;;;;4996624;28;20529;-67
2021/05/18 02:25:09;;;;;;;0.57;0.57;;;10.40;99.90;;;;;;4996140;28;20988;-66
2021/05/18 02:27:36;;;;;;;0.50;0.50;;;10.40;99.90;;;;;;4995966;28;21011;-67
2021/05/18 02:30:05;;;;;;;0.60;0.60;;;10.30;99.90;;;;;;4996307;28;20462;-67
2021/05/18 02:32:32;;;;;;;0.83;0.83;;;10.30;99.90;;;;;;4996067;28;20612;-66
2021/05/18 02:34:58;;;;;;;0.77;0.60;;;10.30;99.90;;;;;;4996045;28;20458;-67
2021/05/18 02:37:25;;;;;;;0.70;0.50;;;10.30;99.90;;;;;;4998342;28;20458;-67
2021/05/18 02:39:51;;;;;;;0.47;0.47;;;10.30;99.90;;;;;;4997900;28;20454;-67
2021/05/18 02:42:18;;;;;;;0.63;0.63;;;10.30;99.90;;;;;;4998235;28;20497;-66
2021/05/18 02:44:47;;;;;;;0.73;0.73;;;10.20;99.90;;;;;;4998970;28;20458;-66
2021/05/18 02:49:58;;;;;;;0.70;0.70;;;10.30;99.90;;;;;;4998505;28;20405;-66
2021/05/18 02:52:25;;;;;;;0.60;0.60;;;10.30;99.90;;;;;;4998552;28;20813;-66
2021/05/18 02:54:54;;;;;;;0.70;0.70;;;10.30;99.90;;;;;;4998634;28;20540;-66
2021/05/18 02:57:31;;;;;;;1.00;1.00;;;10.30;99.90;;;;;;4997265;28;20512;-66
2021/05/18 02:59:59;;;;;;;0.70;0.70;;;10.30;99.90;;;;;;4998904;28;20437;-66
2021/05/18 03:02:26;;;;;;;0.50;0.50;;;10.30;99.90;;;;;;4998870;28;20478;-66
2021/05/18 03:04:52;;;;;;;0.80;0.80;;;10.20;99.90;;;;;;5001926;28;20445;-66
2021/05/18 03:07:19;;;;;;;0.70;0.70;;;10.10;99.90;;;;;;5001491;28;20470;-66
2021/05/18 03:09:45;;;;;;;0.70;0.70;;;10.00;99.90;;;;;;4999778;28;20830;-67
2021/05/18 03:12:11;;;;;;;1.23;0.80;;;10.10;99.90;;;;;;4998254;28;20454;-66
2021/05/18 03:14:37;;;;;;;0.60;0.60;;;10.00;99.90;;;;;;4997295;28;20498;-66
2021/05/18 03:17:05;;;;;;;1.00;0.70;;;10.00;99.90;;;;;;4996218;28;20477;-66
2021/05/18 03:19:31;;;;;;;1.07;0.60;;;10.00;99.90;;;;;;4996485;28;20457;-66
2021/05/18 03:21:58;;;;;;;0.50;0.50;;;10.00;99.90;;;;;;4996535;28;20484;-66
2021/05/18 03:24:24;;;;;;;2.17;0.80;;;10.00;99.90;;;;;;4996045;28;20493;-66
2021/05/18 03:26:50;;;;;;;1.13;1.13;;;10.00;99.90;;;;;;4995624;28;20827;-66
2021/05/18 03:29:20;;;;;;;0.70;0.70;;;10.00;99.90;;;;;;4995520;28;20545;-66
2021/05/18 03:34:35;;;;;;;0.67;0.63;;;10.10;99.90;;;;;;4995818;28;20540;-66
2021/05/18 03:37:06;;;;;;;0.50;0.50;;;10.20;99.90;;;;;;4997112;28;20454;-66
2021/05/18 03:39:32;;;;;;;1.07;0.90;;;10.30;99.90;;;;;;4996944;28;20916;-66
2021/05/18 03:42:03;;;;;;;0.80;0.80;;;10.20;99.90;;;;;;4997367;28;20473;-66
2021/05/18 03:52:51;;;;;;;0.87;0.67;;;10.30;99.90;;;;;;4972146;28;20484;-67
2021/05/18 04:03:41;;;;;;;0.90;0.90;;;10.20;99.90;;;;;;4995896;28;21006;-66
2021/05/18 04:12:06;;;;;;;0.90;0.90;;;10.20;99.90;;;;;;4995068;28;20472;-66
2021/05/18 04:17:17;;;;;;;0.90;0.90;;;10.20;99.90;;;;;;4995008;28;20468;-66
2021/05/18 04:19:48;;;;;;;1.17;0.70;;;10.20;99.90;;;;;;4994344;28;21015;-66
2021/05/18 04:25:35;;;;;;;0.70;0.70;;;10.20;99.90;;;;;;4994662;28;20437;-66
2021/05/18 04:39:10;;;;;;;1.10;1.10;;;10.40;99.90;;;;;;4993982;28;20441;-66
2021/05/18 04:50:22;;;;;;;1.07;0.80;;;10.60;99.90;;;;;;4994327;28;20421;-67
2021/05/18 04:52:56;;;;;;;1.23;0.70;;;10.60;99.90;;;;;;4994052;28;20465;-67
2021/05/18 05:01:03;;;;;;;2.10;0.80;;;10.80;99.90;;;;;;4994248;28;20465;-66
2021/05/18 05:06:33;;;;;;;1.27;0.90;;;10.80;99.90;;;;;;4998416;28;20444;-67
2021/05/18 05:09:08;;;;;;;1.23;1.13;;;10.80;99.90;;;;;;4997955;28;20434;-67
2021/05/18 05:14:24;;;;;;;0.90;0.80;;;10.90;99.90;;;;;;4997419;28;20460;-69
2021/05/18 05:16:51;;;;;;;1.17;0.90;;;11.00;99.90;;;;;;4997673;28;20438;-67
2021/05/18 05:19:17;;;;;;;0.70;0.70;;;11.10;99.90;;;;;;4997424;28;20967;-68
2021/05/18 05:21:44;;;;;;;1.53;0.90;;;11.10;99.90;;;;;;4998095;28;20496;-67
2021/05/18 05:24:11;;;;;;;0.70;0.70;;;11.10;99.90;;;;;;4997473;28;20473;-67
2021/05/18 05:26:39;;;;;;;0.97;0.97;;;11.20;99.90;;;;;;4997154;28;20967;-69
2021/05/18 05:29:06;;;;;;;2.70;1.10;;;11.20;99.90;;;;;;4997598;28;20453;-67
2021/05/18 05:31:33;;;;;;;1.90;1.17;;;11.30;99.90;;;;;;4997443;28;20449;-68
2021/05/18 05:33:59;;;;;;;1.10;1.10;;;11.30;99.90;;;;;;4996956;28;20998;-67
2021/05/18 05:36:26;;;;;;;1.13;0.90;;;11.40;99.90;;;;;;4997186;28;20940;-67
2021/05/18 05:38:58;;;;;;;1.70;1.00;;;11.40;99.90;;;;;;4997074;28;20464;-68
2021/05/18 05:41:24;;;;;;;1.77;1.00;;;11.30;99.90;;;;;;4996877;28;20473;-67
2021/05/18 05:43:52;;;;;;;0.97;0.97;;;11.30;99.90;;;;;;4996887;28;20930;-68
2021/05/18 05:46:18;;;;;;;1.10;1.00;;;11.30;99.90;;;;;;4996954;28;20457;-67
2021/05/18 05:48:52;;;;;;;1.00;1.00;;;11.40;99.90;;;;;;4997151;28;20454;-68
2021/05/18 05:51:18;;;;;;;1.03;1.00;;;11.40;99.90;;;;;;4997095;28;20439;-66
2021/05/18 05:53:44;;;;;;;1.47;1.23;;;11.50;99.90;;;;;;4996775;28;20524;-67
2021/05/18 05:56:12;;;;;;;1.03;0.87;;;11.90;99.90;;;;;;4996834;28;20835;-67
2021/05/18 05:58:38;;;;;;;0.90;0.90;;;12.10;99.90;;;;;;4998280;28;20482;-67
2021/05/18 06:01:06;;;;;;;1.67;1.57;;;12.40;99.90;;;;;;4996582;28;20482;-68
2021/05/18 06:03:33;;;;;;;1.63;0.87;;;12.60;99.90;;;;;;4996277;28;20485;-68
2021/05/18 06:05:59;;;;;;;2.60;1.00;;;12.80;99.90;;;;;;4996952;28;20485;-67
2021/05/18 06:08:25;;;;;;;1.07;1.07;;;12.70;99.90;;;;;;4996555;28;20457;-68
2021/05/18 06:10:55;;;;;;;1.50;1.23;;;12.50;99.90;;;;;;4996668;28;20461;-67
2021/05/18 06:13:46;;;;;;;4.10;1.77;;;12.10;99.90;;;;;;4995773;28;20478;-67
2021/05/18 06:41:36;;;;;;;2.93;1.30;;;11.40;99.90;;;;;;4996139;28;20553;-67
2021/05/18 06:46:53;;;;;;;1.50;1.40;;;11.50;99.90;;;;;;4995961;28;20425;-66
2021/05/18 06:49:20;;;;;;;1.07;1.07;;;11.60;99.90;;;;;;4995725;28;20446;-67
2021/05/18 06:51:47;;;;;;;1.43;1.43;;;11.70;99.90;;;;;;4995904;28;20441;-67
2021/05/18 06:54:13;;;;;;;1.20;1.20;;;11.90;99.90;;;;;;4995918;28;20528;-67
2021/05/18 06:56:41;;;;;;;1.40;0.97;;;12.30;99.90;;;;;;4995340;28;20442;-65
2021/05/18 07:01:56;;;;;;;0.73;0.73;;;12.80;99.90;;;;;;4995649;28;20477;-66
2021/05/18 07:04:23;;;;;;;1.20;1.10;;;13.00;99.90;;;;;;4995408;28;20580;-66
2021/05/18 07:06:53;;;;;;;0.90;0.90;;;13.10;99.90;;;;;;4995564;28;20527;-65
2021/05/18 07:09:20;;;;;;;1.13;1.03;;;13.00;99.90;;;;;;4995994;28;20539;-66
2021/05/18 07:11:46;;;;;;;1.90;1.20;;;13.10;99.90;;;;;;4995715;28;20476;-65
2021/05/18 07:14:12;;;;;;;1.80;0.93;;;13.00;99.90;;;;;;4994922;28;20528;-65
2021/05/18 07:16:38;;;;;;;0.90;0.90;;;13.00;99.90;;;;;;4995000;28;20461;-67
2021/05/18 07:19:04;;;;;;;0.83;0.80;;;13.00;99.90;;;;;;4995224;28;20458;-66
2021/05/18 07:21:31;;;;;;;0.90;0.90;;;13.00;99.90;;;;;;4995122;28;20489;-66
2021/05/18 07:23:58;;;;;;;1.03;1.03;;;13.10;99.90;;;;;;4995176;28;20478;-66
2021/05/18 07:26:24;;;;;;;2.83;1.03;;;13.10;99.90;;;;;;4995028;28;20556;-67
2021/05/18 07:28:50;;;;;;;4.37;1.77;;;13.00;99.90;;;;;;4995104;28;20454;-67
2021/05/18 07:31:16;;;;;;;1.00;0.90;;;13.00;99.90;;;;;;4995133;28;20449;-66
2021/05/18 07:33:43;;;;;;;1.50;1.17;;;13.10;99.90;;;;;;4995656;28;20558;-68
2021/05/18 07:36:09;;;;;;;1.37;1.20;;;13.10;99.90;;;;;;4994932;28;20636;-68
2021/05/18 07:38:38;;;;;;;1.63;1.30;;;13.10;99.90;;;;;;4995763;28;20464;-68
2021/05/18 07:41:07;;;;;;;1.43;1.33;;;13.20;99.90;;;;;;4994674;28;20454;-69
2021/05/18 07:43:34;;;;;;;4.30;1.20;;;13.30;99.90;;;;;;4994650;28;20477;-67
2021/05/18 07:46:02;;;;;;;2.60;1.10;;;13.30;99.90;;;;;;4994613;28;20458;-68
2021/05/18 07:48:32;;;;;;;1.33;1.33;;;13.40;99.90;;;;;;4994730;28;20434;-68
2021/05/18 07:51:10;;;;;;;4.13;1.57;;;13.40;99.90;;;;;;4994385;28;20438;-66
2021/05/18 07:59:24;;;;;;;2.57;1.70;;;13.30;99.90;;;;;;4994598;28;20489;-66
2021/05/18 08:07:20;;;;;;;2.90;2.00;;;13.00;99.90;;;;;;4994376;28;20541;-66
2021/05/18 08:09:50;;;;;;;3.70;2.10;;;13.00;99.90;;;;;;4994491;28;20492;-66
2021/05/18 08:12:17;;;;;;;2.27;2.07;;;13.10;99.90;;;;;;4994172;28;20526;-66
2021/05/18 08:14:47;;;;;;;2.03;1.83;;;13.20;99.90;;;;;;4994339;28;20454;-67
2021/05/18 08:17:18;;;;;;;2.70;1.87;;;13.40;99.90;;;;;;4994112;28;20952;-69
2021/05/18 09:02:18;;;;;;;17.63;2.80;;;16.90;99.90;;;;;;4997625;28;20817;-67
2021/05/18 10:27:04;;;;;;;0.70;0.70;;;24.30;93.00;;;;;;4996095;28;20568;-67
2021/05/18 10:37:24;;;;;;;1.33;1.23;;;24.40;84.90;;;;;;4993038;28;20805;-67
2021/05/18 10:40:26;;;;;;;0.93;0.90;;;23.90;81.70;;;;;;4996827;28;20446;-67
2021/05/18 10:43:17;;;;;;;3.73;1.20;;;23.80;90.70;;;;;;4995511;28;20489;-67
2021/05/18 10:46:07;;;;;;;0.77;0.73;;;24.30;90.30;;;;;;4995747;28;20442;-67
2021/05/18 10:49:04;;;;;;;1.13;1.03;;;24.50;84.20;;;;;;4995664;28;20868;-66
2021/05/18 10:51:43;;;;;;;2.20;0.63;;;24.90;89.20;;;;;;4995310;28;20913;-67
2021/05/18 10:54:17;;;;;;;1.47;1.00;;;24.20;83.10;;;;;;4995669;28;20548;-67
2021/05/18 10:57:13;;;;;;;2.77;1.20;;;24.10;87.30;;;;;;4995256;28;20901;-68
2021/05/18 10:59:42;;;;;;;0.77;0.77;;;24.30;86.10;;;;;;4994772;28;20500;-67
2021/05/18 11:02:11;;;;;;;5.27;1.30;;;24.50;80.30;;;;;;4995336;28;20478;-69
2021/05/18 11:04:39;;;;;;;2.00;0.73;;;23.80;76.50;;;;;;4995013;28;20470;-70
2021/05/18 11:07:08;;;;;;;9.67;2.33;;;23.30;83.50;;;;;;4995508;28;20468;-69
2021/05/18 11:09:35;;;;;;;9.57;2.60;;;22.70;89.00;;;;;;4995376;28;20465;-68
2021/05/18 11:12:04;;;;;;;10.43;2.23;;;22.00;88.20;;;;;;4995358;28;20446;-67
2021/05/18 11:14:50;;;;;;;3.30;1.00;;;21.50;89.60;;;;;;4995109;28;20517;-70
2021/05/18 11:17:23;;;;;;;2.30;1.20;;;20.90;89.60;;;;;;4995354;28;20437;-69
2021/05/18 11:19:58;;;;;;;1.23;0.80;;;20.40;92.00;;;;;;4995210;28;20461;-69
2021/05/18 11:25:07;;;;;;;2.97;1.23;;;20.60;94.60;;;;;;4962882;28;20438;-69
2021/05/18 11:27:34;;;;;;;1.77;1.10;;;21.10;89.60;;;;;;4994996;28;20449;-69
2021/05/18 11:30:01;;;;;;;1.63;0.93;;;21.50;89.40;;;;;;4994712;28;20923;-69
2021/05/18 11:32:27;;;;;;;1.70;1.20;;;21.80;91.90;;;;;;4994989;28;20469;-68
2021/05/18 11:34:57;;;;;;;1.77;0.80;;;21.90;84.90;;;;;;4994880;28;20453;-68
2021/05/18 11:37:25;;;;;;;1.93;1.00;;;21.30;85.40;;;;;;4994594;28;20972;-68
2021/05/18 11:40:08;;;;;;;4.57;1.50;;;20.70;90.20;;;;;;4994557;28;20461;-68
2021/05/18 11:42:34;;;;;;;1.40;0.60;;;20.80;86.30;;;;;;4994666;28;20466;-67
2021/05/18 11:45:07;;;;;;;0.97;0.60;;;21.00;91.10;;;;;;4994861;28;20461;-68
2021/05/18 11:47:34;;;;;;;1.37;1.10;;;21.00;90.50;;;;;;4994930;28;20438;-67
2021/05/18 11:50:00;;;;;;;2.70;1.10;;;21.10;89.10;;;;;;4994703;28;20453;-67
2021/05/18 11:52:34;;;;;;;3.70;0.90;;;21.10;89.20;;;;;;4994807;28;20457;-67
2021/05/18 11:55:00;;;;;;;1.53;0.67;;;20.90;89.10;;;;;;4994449;28;20453;-67
2021/05/18 11:57:26;;;;;;;0.80;0.80;;;20.20;85.40;;;;;;4995175;28;20453;-68
2021/05/18 11:59:53;;;;;;;2.63;1.40;;;19.60;88.30;;;;;;4994845;28;20450;-68
2021/05/18 12:02:21;;;;;;;4.10;1.30;;;19.30;90.90;;;;;;4994358;28;20485;-68
2021/05/18 12:04:49;;;;;;;22.57;4.00;;;19.00;91.00;;;;;;4994375;28;20438;-66
2021/05/18 12:07:16;;;;;;;3.60;0.80;;;18.20;97.90;;;;;;4994370;28;20461;-66
2021/05/18 12:09:44;;;;;;;2.40;0.77;;;18.00;99.90;;;;;;4994243;28;20457;-66
2021/05/18 12:12:12;;;;;;;6.63;1.60;;;18.20;99.90;;;;;;4993833;28;20516;-66
2021/05/18 12:14:42;;;;;;;1.07;0.70;;;18.50;99.90;;;;;;4994348;28;20576;-66
2021/05/18 12:17:09;;;;;;;39.27;5.70;;;18.70;99.90;;;;;;4994492;28;20836;-67
2021/05/18 12:19:39;;;;;;;2.53;0.90;;;19.10;99.90;;;;;;4994125;28;20534;-66
2021/05/18 12:22:05;;;;;;;0.77;0.77;;;19.50;99.90;;;;;;4995000;28;20585;-66
2021/05/18 12:24:38;;;;;;;2.67;1.20;;;19.60;95.60;;;;;;4994254;28;20474;-67
2021/05/18 12:27:05;;;;;;;2.10;0.97;;;20.00;99.70;;;;;;4993866;28;20916;-67
2021/05/18 12:29:34;;;;;;;9.93;2.77;;;20.40;96.70;;;;;;4993892;28;20458;-67
2021/05/18 12:32:15;;;;;;;4.63;1.20;;;20.30;91.00;;;;;;4993992;28;20523;-67
2021/05/18 12:34:42;;;;;;;2.97;0.77;;;20.00;92.20;;;;;;4994030;28;20958;-67
2021/05/18 12:37:09;;;;;;;1.43;0.90;;;19.30;90.20;;;;;;4994225;28;20442;-66
2021/05/18 12:39:41;;;;;;;1.30;1.00;;;19.20;91.70;;;;;;4993995;28;20454;-66
2021/05/18 12:42:11;;;;;;;0.70;0.70;;;19.40;92.90;;;;;;4993704;28;21055;-66
2021/05/18 12:44:51;;;;;;;3.10;1.00;;;19.00;91.90;;;;;;4993871;28;20477;-66
2021/05/18 12:47:26;;;;;;;2.63;0.70;;;19.00;95.60;;;;;;4993928;28;20442;-67
2021/05/18 12:49:53;;;;;;;0.70;0.70;;;19.40;97.30;;;;;;4994033;28;20446;-66
2021/05/18 12:52:20;;;;;;;0.50;0.50;;;19.30;93.80;;;;;;4993780;28;20449;-66
2021/05/18 12:54:51;;;;;;;1.10;0.60;;;19.60;93.10;;;;;;4993768;28;20457;-66
2021/05/18 12:57:20;;;;;;;1.50;0.70;;;19.30;91.00;;;;;;4993706;28;21007;-66
2021/05/18 13:00:08;;;;;;;0.67;0.50;;;19.40;92.30;;;;;;4993904;28;20457;-66
2021/05/18 13:02:36;;;;;;;0.60;0.60;;;19.50;92.80;;;;;;4993513;28;20484;-66
2021/05/18 13:05:11;;;;;;;1.33;0.73;;;20.00;92.70;;;;;;4993444;28;20921;-66
2021/05/18 13:07:39;;;;;;;5.40;1.30;;;20.10;89.10;;;;;;4993704;28;20437;-66
2021/05/18 13:10:07;;;;;;;1.30;0.70;;;19.90;85.80;;;;;;4993844;28;20464;-66
2021/05/18 13:12:33;;;;;;;1.23;0.93;;;19.80;85.00;;;;;;4993293;28;20798;-66
2021/05/18 13:15:01;;;;;;;0.80;0.80;;;19.90;91.70;;;;;;4993373;28;20824;-66
2021/05/18 13:17:30;;;;;;;1.77;0.70;;;20.10;94.10;;;;;;4993717;28;20465;-66
2021/05/18 13:20:00;;;;;;;0.83;0.80;;;20.20;92.30;;;;;;4993800;28;20836;-66
2021/05/18 13:22:29;;;;;;;0.80;0.80;;;20.50;91.80;;;;;;4993446;28;20516;-67
2021/05/18 13:27:52;;;;;;;4.83;0.80;;;20.60;91.70;;;;;;4997256;28;20429;-67
2021/05/18 13:30:20;;;;;;;1.47;1.00;;;20.90;93.20;;;;;;4997761;28;20442;-66
2021/05/18 13:32:47;;;;;;;1.37;0.77;;;21.20;90.40;;;;;;4997690;28;20497;-66
2021/05/18 13:35:14;;;;;;;0.97;0.87;;;20.80;88.60;;;;;;4997113;28;20441;-66
2021/05/18 13:37:42;;;;;;;1.03;0.60;;;20.60;91.20;;;;;;4996953;28;20460;-66
2021/05/18 13:40:09;;;;;;;1.80;1.00;;;20.60;92.40;;;;;;4996468;28;20967;-66
2021/05/18 13:42:35;;;;;;;1.07;0.70;;;20.50;90.90;;;;;;4996722;28;20481;-66
2021/05/18 13:45:01;;;;;;;1.03;0.70;;;20.10;87.90;;;;;;4996886;28;20477;-66
2021/05/18 13:47:28;;;;;;;2.00;0.73;;;19.50;88.10;;;;;;4996869;28;20508;-66
2021/05/18 13:49:54;;;;;;;0.70;0.70;;;18.90;85.80;;;;;;4996941;28;20889;-66
2021/05/18 13:52:20;;;;;;;0.90;0.80;;;18.30;88.80;;;;;;4996724;28;20457;-66
2021/05/18 13:54:47;;;;;;;7.83;0.67;;;17.90;89.60;;;;;;4996614;28;20464;-66
2021/05/18 13:57:13;;;;;;;4.50;0.90;;;18.00;91.70;;;;;;4996390;28;20457;-66
2021/05/18 13:59:39;;;;;;;1.23;0.60;;;18.10;90.90;;;;;;4996796;28;20481;-67
2021/05/18 14:02:06;;;;;;;3.30;1.47;;;18.20;94.50;;;;;;4996628;28;20481;-66
2021/05/18 14:04:32;;;;;;;2.00;0.80;;;18.00;94.90;;;;;;4996352;28;20485;-67
2021/05/18 14:07:33;;;;;;;2.00;1.00;;;17.90;95.80;;;;;;4996405;28;20948;-66
2021/05/18 14:10:00;;;;;;;1.53;0.80;;;17.90;98.00;;;;;;4996314;28;20532;-68
2021/05/18 14:12:26;;;;;;;1.10;1.00;;;18.00;99.90;;;;;;4996507;28;20449;-67
2021/05/18 14:14:53;;;;;;;2.10;0.60;;;17.80;99.60;;;;;;4996443;28;20957;-67
2021/05/18 14:17:19;;;;;;;2.13;0.53;;;17.70;99.80;;;;;;4996659;28;20508;-69
2021/05/18 14:19:45;;;;;;;3.90;0.83;;;17.70;99.90;;;;;;4996499;28;20438;-67
2021/05/18 14:22:11;;;;;;;1.20;0.60;;;17.60;97.60;;;;;;4996379;28;20477;-68
2021/05/18 14:24:42;;;;;;;0.90;0.60;;;17.30;99.20;;;;;;4996464;28;20477;-68
2021/05/18 14:27:13;;;;;;;1.53;0.80;;;17.40;99.90;;;;;;4996646;28;20512;-67
2021/05/18 14:29:39;;;;;;;2.57;1.10;;;17.50;99.90;;;;;;4996361;28;20550;-67
2021/05/18 14:32:05;;;;;;;1.40;0.70;;;17.40;99.90;;;;;;4996576;28;20454;-67
2021/05/18 14:34:31;;;;;;;2.00;0.70;;;17.70;99.80;;;;;;4995704;28;20486;-67
2021/05/18 14:36:58;;;;;;;1.57;0.77;;;17.80;99.90;;;;;;4996135;28;20508;-67
2021/05/18 14:39:35;;;;;;;0.80;0.70;;;18.10;97.70;;;;;;4996141;28;20454;-68
2021/05/18 14:44:46;;;;;;;0.50;0.50;;;18.00;97.50;;;;;;4996135;28;20438;-68
2021/05/18 14:47:17;;;;;;;0.50;0.50;;;18.10;98.00;;;;;;4996147;28;20458;-68
2021/05/18 14:55:16;;;;;;;1.17;1.07;;;18.20;96.70;;;;;;4996250;28;20437;-68
2021/05/18 14:57:42;;;;;;;0.93;0.90;;;17.60;97.20;;;;;;4996051;28;20438;-68
2021/05/18 15:00:11;;;;;;;1.60;0.60;;;17.10;98.70;;;;;;4995929;28;20457;-70
2021/05/18 15:02:37;;;;;;;1.37;0.60;;;16.60;99.90;;;;;;4996206;28;20489;-69
2021/05/18 15:05:04;;;;;;;0.70;0.70;;;16.50;99.90;;;;;;4996138;28;20493;-67
2021/05/18 15:07:30;;;;;;;0.73;0.73;;;16.20;99.90;;;;;;4995911;28;20462;-67
2021/05/18 15:09:57;;;;;;;1.17;0.93;;;15.90;99.90;;;;;;4995948;28;20457;-66
2021/05/18 15:12:23;;;;;;;1.90;0.70;;;15.70;99.90;;;;;;4995354;28;20454;-65
2021/05/18 15:14:49;;;;;;;0.60;0.50;;;15.60;99.90;;;;;;4995490;28;20469;-66
2021/05/18 15:17:16;;;;;;;1.63;0.67;;;15.70;99.90;;;;;;4995112;28;20453;-67
2021/05/18 15:19:44;;;;;;;0.77;0.77;;;15.70;99.90;;;;;;4994890;28;20462;-67
2021/05/18 15:22:11;;;;;;;0.70;0.70;;;15.70;99.90;;;;;;4995262;28;20484;-67
2021/05/18 15:24:38;;;;;;;1.43;0.70;;;15.80;99.90;;;;;;4995070;28;20576;-67
2021/05/18 15:27:05;;;;;;;0.83;0.77;;;16.00;99.90;;;;;;4994887;28;20949;-66
2021/05/18 15:29:32;;;;;;;0.60;0.60;;;16.50;99.90;;;;;;4995636;28;20457;-67
2021/05/18 15:31:59;;;;;;;0.87;0.60;;;16.80;99.90;;;;;;4995098;28;20446;-66
2021/05/18 15:34:26;;;;;;;0.90;0.80;;;16.90;99.90;;;;;;4994897;28;20473;-67
2021/05/18 15:36:54;;;;;;;1.07;0.83;;;17.10;99.90;;;;;;4995098;28;20446;-67
2021/05/18 15:39:20;;;;;;;1.60;0.57;;;17.20;99.90;;;;;;4994993;28;20496;-66
2021/05/18 15:41:46;;;;;;;0.90;0.70;;;17.10;99.90;;;;;;4995422;28;20508;-67
2021/05/18 15:44:13;;;;;;;0.60;0.60;;;17.40;99.90;;;;;;4995450;28;20473;-66
2021/05/18 15:46:39;;;;;;;1.30;0.80;;;17.60;99.90;;;;;;4995259;28;20838;-67
2021/05/18 15:49:05;;;;;;;0.90;0.90;;;17.80;99.90;;;;;;4995125;28;20457;-65
2021/05/18 15:51:32;;;;;;;0.73;0.73;;;17.80;99.90;;;;;;4994470;28;20826;-65
2021/05/18 15:53:58;;;;;;;2.20;0.90;;;17.60;99.90;;;;;;4994863;28;20474;-65
2021/05/18 15:56:25;;;;;;;1.63;0.60;;;17.50;99.90;;;;;;4994686;28;20465;-66
2021/05/18 15:58:51;;;;;;;1.07;1.00;;;17.30;99.90;;;;;;4994880;28;20484;-65
2021/05/18 16:01:17;;;;;;;0.83;0.60;;;16.90;99.90;;;;;;4994541;28;20458;-67
2021/05/18 16:03:43;;;;;;;2.70;0.90;;;16.50;99.90;;;;;;4994235;28;20486;-67
2021/05/18 16:06:09;;;;;;;0.90;0.90;;;16.10;99.90;;;;;;4994475;28;20458;-67
2021/05/18 16:11:21;;;;;;;0.67;0.67;;;15.50;99.90;;;;;;4994786;28;20449;-66
2021/05/18 16:13:47;;;;;;;0.70;0.70;;;15.10;99.90;;;;;;4994169;28;20466;-66
2021/05/18 16:16:15;;;;;;;0.97;0.80;;;14.80;99.90;;;;;;4994016;28;20967;-66
2021/05/18 16:18:42;;;;;;;0.83;0.70;;;14.60;99.90;;;;;;4994214;28;20540;-66
2021/05/18 16:21:09;;;;;;;2.40;0.67;;;14.50;99.90;;;;;;4994221;28;20453;-66
2021/05/18 16:23:38;;;;;;;1.00;0.90;;;14.50;99.90;;;;;;4994478;28;20489;-65
2021/05/18 16:26:05;;;;;;;1.57;0.83;;;14.40;99.90;;;;;;4994628;28;20454;-66
2021/05/18 16:28:32;;;;;;;0.77;0.77;;;14.50;99.90;;;;;;4994576;28;20876;-66
2021/05/18 16:30:59;;;;;;;0.80;0.80;;;14.50;99.90;;;;;;4994033;28;20453;-66
2021/05/18 16:33:26;;;;;;;0.60;0.60;;;14.60;99.90;;;;;;4994125;28;20474;-66
2021/05/18 16:35:52;;;;;;;0.80;0.60;;;14.80;99.90;;;;;;4993911;28;20458;-67
2021/05/18 16:38:18;;;;;;;1.50;0.90;;;14.80;99.90;;;;;;4994121;28;20446;-67
2021/05/18 16:40:48;;;;;;;1.10;0.70;;;14.90;99.90;;;;;;4993582;28;20865;-66
2021/05/18 16:43:14;;;;;;;0.80;0.80;;;15.00;99.90;;;;;;4993592;28;20524;-68
2021/05/18 16:45:40;;;;;;;0.90;0.73;;;15.10;99.90;;;;;;4993695;28;20453;-67
2021/05/18 16:48:07;;;;;;;0.70;0.70;;;15.10;99.90;;;;;;4994044;28;20457;-68
2021/05/18 16:50:33;;;;;;;0.80;0.80;;;15.10;99.90;;;;;;4994194;28;20453;-68
2021/05/18 16:52:59;;;;;;;0.77;0.77;;;15.10;99.90;;;;;;4993771;28;20474;-68
2021/05/18 16:55:26;;;;;;;2.10;0.90;;;15.10;99.90;;;;;;4993775;28;20544;-67
2021/05/18 16:57:53;;;;;;;1.40;0.73;;;15.20;99.90;;;;;;4994004;28;20465;-68
2021/05/18 17:00:20;;;;;;;2.13;0.90;;;15.00;99.90;;;;;;4997790;28;20483;-68
2021/05/18 17:02:46;;;;;;;1.07;0.90;;;15.00;99.90;;;;;;4997396;28;20485;-68
2021/05/18 17:05:13;;;;;;;0.93;0.90;;;15.00;99.90;;;;;;4997665;28;20458;-68
2021/05/18 17:07:39;;;;;;;0.80;0.80;;;14.90;99.90;;;;;;4997634;28;20508;-68
2021/05/18 17:10:07;;;;;;;7.20;0.90;;;15.00;99.90;;;;;;4997308;28;20461;-67
2021/05/18 17:12:34;;;;;;;1.17;1.17;;;14.90;99.90;;;;;;4997462;28;20530;-68
2021/05/18 17:15:01;;;;;;;1.93;0.90;;;14.70;99.90;;;;;;4997332;28;20960;-65
2021/05/18 17:17:28;;;;;;;0.90;0.90;;;14.50;99.90;;;;;;4997667;28;20457;-65
2021/05/18 17:19:56;;;;;;;1.20;1.20;;;14.40;99.90;;;;;;4997576;28;20529;-67